To NAV CANADA Home Page Login to a new session Search on AWWS site Feedback and Comments Disclaimer Vers la page française équivalente Tips FAQ What's new on the site To the Forecasts and Observations / NOTAM section To "File a Flight Plan" website Publications and other links Update of the User's profile FIC Telephone Numbers My Weather Data Folder Route Weather Data Regional Weather Data Local Weather Data To the Forecasts and Observations / NOTAM section
Request Generated 04/24/2014 at 20:55:49 UTC . Weather information available at that time is displayed.

METAR/TAF

MOOSE JAW/AIR VICE MARSHALL C.M. MCEWEN/SK    

METAR CYMJ 242000Z 29019G25KT 15SM SCT055 BKN210 11/M00 A2965 RMK CU4CI2 SLP054=
METAR CYMJ 241900Z 30019G25KT 15SM SCT040 BKN210 11/01 A2966 RMK CU3CI1 SLP058=
METAR CYMJ 241800Z 30015G21KT 15SM SCT035 BKN180 10/02 A2967 RMK CF3AS2 SLP061=

TAF CYMJ 241715Z 2418/2502 29015G25KT P6SM SCT020 BKN030 TEMPO
2418/2502 5SM -SHRA BR BKN020 PROB30 2420/2502 3SM -TSRA BR
BKN012 OVC030CB
RMK NXT FCST BY 250000Z=
Your time UTC time
Weather data provided by Environment Canada and NAV CANADA